createdAt,value
2022-12-09T00:02:54.543Z,99711.03
2022-12-09T00:05:57.717Z,99715.34
2022-12-09T00:09:00.548Z,99714.91
2022-12-09T00:12:03.943Z,99704.13
2022-12-09T00:15:07.210Z,99700.28
2022-12-09T00:18:10.601Z,99698.88
2022-12-09T00:21:15.455Z,99697.19
2022-12-09T00:24:18.561Z,99695.34
2022-12-09T00:27:21.203Z,99699.06
2022-12-09T00:30:24.489Z,99693.44
2022-12-09T00:33:27.320Z,99701.97
2022-12-09T00:36:30.448Z,99703.22
2022-12-09T00:39:33.681Z,99710.81
2022-12-09T00:42:36.712Z,99716.25
2022-12-09T00:45:39.292Z,99725.31
2022-12-09T00:48:43.505Z,99708.78
2022-12-09T00:51:46.842Z,99713.03
2022-12-09T00:54:50.073Z,99710.03
2022-12-09T00:57:52.810Z,99718.47
2022-12-09T01:00:56.267Z,99724.22
2022-12-09T01:03:59.757Z,99712.19
2022-12-09T01:07:03.860Z,99711.34
2022-12-09T01:10:07.707Z,99719.13
2022-12-09T01:13:13.051Z,99713.22
2022-12-09T01:16:22.427Z,99710.09
2022-12-09T01:19:25.435Z,99703.72
2022-12-09T01:22:28.981Z,99713.03
2022-12-09T01:25:33.016Z,99710.87
2022-12-09T01:28:37.240Z,99708.47
2022-12-09T01:31:40.234Z,99719.63
2022-12-09T01:34:43.375Z,99713.41
2022-12-09T01:37:46.210Z,99708.50
2022-12-09T01:40:48.840Z,99699.44
2022-12-09T01:44:27.455Z,99703.09
2022-12-09T01:47:30.113Z,99709.38
2022-12-09T01:50:35.698Z,99709.53
2022-12-09T01:53:40.979Z,99693.00
2022-12-09T01:56:44.072Z,99701.94
2022-12-09T01:59:47.218Z,99702.16
2022-12-09T02:02:54.738Z,99694.44
2022-12-09T02:05:58.407Z,99685.44
2022-12-09T02:09:01.652Z,99679.44
2022-12-09T02:12:26.974Z,99682.81
2022-12-09T02:15:50.417Z,99685.91
2022-12-09T02:19:26.750Z,99681.69
2022-12-09T02:22:34.901Z,99682.78
2022-12-09T02:25:45.873Z,99675.16
2022-12-09T02:29:17.149Z,99683.44
2022-12-09T02:32:55.355Z,99667.03
2022-12-09T02:36:05.713Z,99692.66
2022-12-09T02:39:10.019Z,99681.37
2022-12-09T02:42:18.741Z,99677.06
2022-12-09T02:45:26.867Z,99669.62
2022-12-09T02:48:36.679Z,99664.28
2022-12-09T02:51:42.601Z,99664.78
2022-12-09T02:54:51.922Z,99660.31
2022-12-09T02:58:00.041Z,99660.63
2022-12-09T03:01:04.551Z,99668.91
2022-12-09T03:04:10.699Z,99652.81
2022-12-09T03:07:30.369Z,99658.41
2022-12-09T03:10:53.712Z,99658.47
2022-12-09T03:14:13.181Z,99657.13
2022-12-09T03:17:23.076Z,99657.31
2022-12-09T03:20:31.044Z,99654.12
2022-12-09T03:23:36.946Z,99653.06
2022-12-09T03:26:41.769Z,99645.50
2022-12-09T03:29:48.234Z,99653.91
2022-12-09T03:32:52.541Z,99655.69
2022-12-09T03:36:03.420Z,99630.78
2022-12-09T03:39:10.224Z,99635.28
2022-12-09T03:42:21.387Z,99627.16
2022-12-09T03:45:24.908Z,99624.62
2022-12-09T03:48:28.043Z,99630.13
2022-12-09T03:51:36.903Z,99649.56
2022-12-09T03:54:44.896Z,99634.31
2022-12-09T03:57:51.043Z,99639.06
2022-12-09T04:00:54.283Z,99637.31
2022-12-09T04:03:57.789Z,99632.84
2022-12-09T04:07:01.050Z,99633.41
2022-12-09T04:10:05.764Z,99628.66
2022-12-09T04:13:09.146Z,99631.94
2022-12-09T04:16:12.404Z,99641.81
2022-12-09T04:19:15.652Z,99632.25
2022-12-09T04:22:19.927Z,99638.38
2022-12-09T04:25:22.881Z,99627.22
2022-12-09T04:28:26.629Z,99633.31
2022-12-09T04:31:29.589Z,99631.53
2022-12-09T04:34:33.460Z,99634.84
2022-12-09T04:37:37.535Z,99637.16
2022-12-09T04:40:40.981Z,99637.47
2022-12-09T04:43:43.979Z,99628.72
2022-12-09T04:46:46.952Z,99626.25
2022-12-09T04:49:49.693Z,99620.22
2022-12-09T04:52:52.810Z,99615.41
2022-12-09T04:56:16.069Z,99623.97
2022-12-09T04:59:19.029Z,99617.19
2022-12-09T05:02:22.020Z,99628.78
2022-12-09T05:05:25.660Z,99621.31
2022-12-09T05:08:31.503Z,99620.50
2022-12-09T05:11:35.275Z,99617.06
2022-12-09T05:14:38.415Z,99619.69
2022-12-09T05:17:41.542Z,99622.59
2022-12-09T05:20:44.525Z,99621.91
2022-12-09T05:23:48.550Z,99621.56
2022-12-09T05:26:51.931Z,99616.34
2022-12-09T05:29:54.943Z,99605.81
2022-12-09T05:32:57.729Z,99599.81
2022-12-09T05:36:01.260Z,99603.75
2022-12-09T05:39:03.912Z,99602.75
2022-12-09T05:42:07.189Z,99606.47
2022-12-09T05:45:11.792Z,99601.22
2022-12-09T05:48:14.926Z,99599.81
2022-12-09T05:51:27.192Z,99596.50
2022-12-09T05:54:30.356Z,99593.88
2022-12-09T05:57:36.767Z,99600.22
2022-12-09T06:00:40.293Z,99607.69
2022-12-09T06:03:43.937Z,99598.09
2022-12-09T06:06:47.048Z,99611.19
2022-12-09T06:09:50.417Z,99612.78
2022-12-09T06:12:57.811Z,99609.12
2022-12-09T06:16:05.413Z,99604.41
2022-12-09T06:19:12.171Z,99589.69
2022-12-09T06:22:15.662Z,99599.19
2022-12-09T06:25:18.708Z,99599.50
2022-12-09T06:28:26.743Z,99604.56
2022-12-09T06:31:30.093Z,99597.34
2022-12-09T06:34:33.624Z,99596.00
2022-12-09T06:37:36.806Z,99587.63
2022-12-09T06:40:44.249Z,99584.97
2022-12-09T06:43:47.514Z,99576.72
2022-12-09T06:46:51.297Z,99583.63
2022-12-09T06:49:54.814Z,99582.78
2022-12-09T06:52:59.625Z,99585.75
2022-12-09T06:56:11.191Z,99588.66
2022-12-09T06:59:15.604Z,99591.53
2022-12-09T07:02:18.964Z,99592.31
2022-12-09T07:05:24.143Z,99592.06
2022-12-09T07:08:27.723Z,99585.16
2022-12-09T07:11:31.823Z,99586.22
2022-12-09T07:14:35.044Z,99588.41
2022-12-09T07:17:38.593Z,99581.31
2022-12-09T07:20:42.876Z,99590.72
2022-12-09T07:23:47.218Z,99585.47
2022-12-09T07:26:50.786Z,99587.06
2022-12-09T07:29:55.445Z,99575.84
2022-12-09T07:32:58.434Z,99578.16
2022-12-09T07:36:01.805Z,99582.87
2022-12-09T07:39:12.054Z,99575.75
2022-12-09T07:42:15.719Z,99563.78
2022-12-09T07:45:23.320Z,99564.94
2022-12-09T07:48:26.939Z,99558.69
2022-12-09T07:51:30.849Z,99566.84
2022-12-09T07:54:34.404Z,99557.91
2022-12-09T07:57:38.714Z,99557.94
2022-12-09T08:00:42.239Z,99558.34
2022-12-09T08:03:46.466Z,99559.84
2022-12-09T08:06:49.428Z,99564.00
2022-12-09T08:09:56.537Z,99560.69
2022-12-09T08:12:59.987Z,99550.72
2022-12-09T08:16:05.451Z,99546.88
2022-12-09T08:19:08.566Z,99539.94
2022-12-09T08:22:15.337Z,99538.69
2022-12-09T08:25:19.161Z,99541.44
2022-12-09T08:28:24.086Z,99536.06
2022-12-09T08:31:28.670Z,99534.84
2022-12-09T08:34:32.428Z,99523.59
2022-12-09T08:37:35.711Z,99529.91
2022-12-09T08:40:39.561Z,99527.31
2022-12-09T08:43:43.779Z,99523.81
2022-12-09T08:46:49.683Z,99530.66
2022-12-09T08:49:53.259Z,99513.28
2022-12-09T14:29:55.649Z,99024.63
2022-12-09T14:33:00.175Z,99016.75
2022-12-09T14:36:14.989Z,99018.31
2022-12-09T14:39:30.226Z,99019.09
2022-12-09T14:42:51.847Z,99013.53
2022-12-09T14:46:21.276Z,99008.81
2022-12-09T14:49:29.735Z,99015.94
2022-12-09T14:52:34.157Z,99010.91
2022-12-09T14:55:41.266Z,99005.63
2022-12-09T14:59:08.485Z,98998.53
2022-12-09T15:02:11.522Z,98999.31
2022-12-09T15:05:17.226Z,99008.56
2022-12-09T15:08:38.306Z,98994.81
2022-12-09T15:11:41.862Z,98993.50
2022-12-09T15:14:46.319Z,98988.75
2022-12-09T15:18:18.929Z,98977.38
2022-12-09T15:21:47.514Z,98974.00
2022-12-09T15:24:52.742Z,98969.25
2022-12-09T15:28:13.525Z,98969.25
2022-12-09T15:31:22.705Z,98967.38
2022-12-09T15:34:26.650Z,98953.62
2022-12-09T15:37:29.529Z,98959.47
2022-12-09T15:40:35.699Z,98946.81
2022-12-09T15:43:41.274Z,98947.06
2022-12-09T15:46:47.332Z,98930.19
2022-12-09T15:49:55.326Z,98923.03
2022-12-09T15:53:04.365Z,98922.06
2022-12-09T15:56:29.563Z,98909.34
2022-12-09T15:59:43.596Z,98902.41
2022-12-09T16:02:48.133Z,98896.06
2022-12-09T16:06:01.320Z,98897.69
2022-12-09T16:09:16.000Z,98900.84
2022-12-09T16:12:27.518Z,98896.91
2022-12-09T16:15:41.359Z,98882.66
2022-12-09T16:18:52.201Z,98885.00
2022-12-09T16:22:01.677Z,98871.81
2022-12-09T16:25:24.182Z,98872.34
2022-12-09T16:28:29.563Z,98859.97
2022-12-09T16:31:32.870Z,98867.56
2022-12-09T16:34:35.651Z,98848.06
2022-12-09T16:38:00.458Z,98838.53
2022-12-09T16:41:11.688Z,98834.87
2022-12-09T16:44:19.765Z,98823.75
2022-12-09T16:47:25.001Z,98822.59
2022-12-09T16:50:31.410Z,98812.53
2022-12-09T16:53:39.195Z,98808.06
2022-12-09T16:56:42.521Z,98804.59
2022-12-09T16:59:46.139Z,98807.81
2022-12-09T17:03:10.781Z,98815.16
2022-12-09T17:06:15.433Z,98799.31
2022-12-09T17:09:20.779Z,98793.22
2022-12-09T17:12:23.512Z,98781.66
2022-12-09T17:15:26.471Z,98764.63
2022-12-09T17:18:29.849Z,98767.56
2022-12-09T17:21:32.913Z,98773.34
2022-12-09T17:24:35.545Z,98760.09
2022-12-09T17:27:38.594Z,98747.34
2022-12-09T17:30:41.833Z,98752.69
2022-12-09T17:33:45.059Z,98754.81
2022-12-09T17:36:47.812Z,98746.88
2022-12-09T17:39:54.745Z,98752.56
2022-12-09T17:43:02.745Z,98755.00
2022-12-09T17:46:06.875Z,98751.50
2022-12-09T17:49:09.559Z,98745.22
2022-12-09T17:52:13.396Z,98742.69
2022-12-09T17:55:16.084Z,98752.06
2022-12-09T17:58:19.209Z,98745.50
2022-12-09T18:01:23.825Z,98736.88
2022-12-09T18:04:26.835Z,98748.09
2022-12-09T18:07:29.497Z,98748.31
2022-12-09T18:10:33.054Z,98747.69
2022-12-09T18:13:37.255Z,98742.13
2022-12-09T18:16:40.396Z,98736.63
2022-12-09T18:19:43.166Z,98727.66
2022-12-09T18:22:46.215Z,98731.81
2022-12-09T18:25:48.937Z,98732.28
2022-12-09T18:28:56.673Z,98735.87
2022-12-09T18:31:59.572Z,98727.53
2022-12-09T18:35:02.471Z,98716.44
2022-12-09T18:38:11.096Z,98701.66
2022-12-09T18:41:18.857Z,98721.37
2022-12-09T18:44:30.324Z,98715.59
2022-12-09T18:47:33.697Z,98721.94
2022-12-09T18:50:37.351Z,98711.00
2022-12-09T18:53:40.611Z,98694.19
2022-12-09T18:56:43.422Z,98699.03
2022-12-09T18:59:48.528Z,98687.66
2022-12-09T19:02:51.319Z,98677.22
2022-12-09T19:05:54.378Z,98675.97
2022-12-09T19:09:00.396Z,98676.41
2022-12-09T19:12:45.237Z,98683.34
2022-12-09T19:15:29.147Z,98667.44
2022-12-09T19:18:33.457Z,98671.25
2022-12-09T19:21:36.080Z,98652.94
2022-12-09T19:24:42.965Z,98649.22
2022-12-09T19:27:47.032Z,98634.44
2022-12-09T19:30:50.198Z,98627.19
2022-12-09T19:33:58.644Z,98624.56
2022-12-09T19:37:01.736Z,98621.69
2022-12-09T19:40:05.175Z,98625.78
2022-12-09T19:43:08.357Z,98613.81
2022-12-09T19:46:12.630Z,98609.69
2022-12-09T19:49:18.098Z,98614.66
2022-12-09T19:52:20.718Z,98610.00
2022-12-09T19:55:23.584Z,98603.94
2022-12-09T19:58:26.352Z,98609.44
2022-12-09T20:01:34.980Z,98609.38
2022-12-09T20:04:48.641Z,98604.41
2022-12-09T20:07:52.386Z,98610.22
2022-12-09T20:10:55.389Z,98603.47
2022-12-09T20:13:59.060Z,98596.13
2022-12-09T20:17:02.005Z,98591.41
2022-12-09T20:20:05.566Z,98590.25
2022-12-09T20:23:09.110Z,98593.13
2022-12-09T20:26:21.001Z,98596.47
2022-12-09T20:29:24.043Z,98592.84
2022-12-09T20:32:29.831Z,98608.34
2022-12-09T20:35:36.980Z,98588.78
2022-12-09T20:38:40.668Z,98594.34
2022-12-09T20:41:44.671Z,98607.09
2022-12-09T21:03:17.163Z,98587.62
2022-12-09T21:06:22.928Z,98584.47
2022-12-09T21:09:27.281Z,98614.13
2022-12-09T21:12:30.634Z,98612.00
2022-12-09T21:15:33.213Z,98607.84
2022-12-09T21:18:36.944Z,98610.56
2022-12-09T21:21:41.215Z,98607.63
2022-12-09T21:24:44.353Z,98592.66
2022-12-09T21:27:46.893Z,98593.56
2022-12-09T21:30:50.612Z,98592.84
2022-12-09T21:33:55.307Z,98581.91
2022-12-09T21:36:58.262Z,98578.91
2022-12-09T21:40:00.928Z,98578.69
2022-12-09T21:43:03.812Z,98562.69
2022-12-09T21:46:12.227Z,98569.59
2022-12-09T21:49:15.079Z,98569.72
2022-12-09T21:52:17.670Z,98580.72
2022-12-09T21:55:20.576Z,98582.94
2022-12-09T21:58:23.206Z,98584.50
2022-12-09T22:01:29.417Z,98581.59
2022-12-09T22:04:32.385Z,98585.69
2022-12-09T22:07:35.017Z,98578.59
2022-12-09T22:10:38.582Z,98581.53
2022-12-09T22:13:41.592Z,98580.34
2022-12-09T22:16:46.275Z,98577.28
2022-12-09T22:20:00.495Z,98579.69
2022-12-09T22:23:12.574Z,98576.75
2022-12-09T22:26:17.829Z,98578.34
2022-12-09T22:29:20.987Z,98587.84
2022-12-09T22:32:23.822Z,98575.41
2022-12-09T22:35:26.695Z,98583.63
2022-12-09T22:38:29.900Z,98586.78
2022-12-09T22:41:34.140Z,98587.53
2022-12-09T22:44:36.849Z,98596.53
2022-12-09T22:47:39.973Z,98589.34
2022-12-09T22:50:42.657Z,98597.25
2022-12-09T22:53:49.553Z,98604.34
2022-12-09T22:56:52.201Z,98613.03
2022-12-09T22:59:55.104Z,98608.47
2022-12-09T23:02:57.829Z,98599.63
2022-12-09T23:06:01.748Z,98607.63
2022-12-09T23:09:06.398Z,98606.06
2022-12-09T23:12:09.321Z,98612.63
2022-12-09T23:15:12.416Z,98613.47
2022-12-09T23:18:15.289Z,98614.53
2022-12-09T23:21:30.418Z,98624.06
2022-12-09T23:24:33.481Z,98612.97
2022-12-09T23:27:36.178Z,98615.28
2022-12-09T23:30:39.158Z,98611.97
2022-12-09T23:33:43.558Z,98623.84
2022-12-09T23:36:46.892Z,98614.25
2022-12-09T23:39:49.704Z,98611.56
2022-12-09T23:42:53.369Z,98599.50
2022-12-09T23:45:56.099Z,98601.53
2022-12-09T23:48:59.073Z,98607.59
2022-12-09T23:52:01.638Z,98602.81
2022-12-09T23:55:05.046Z,98609.75
2022-12-09T23:58:07.655Z,98612.97
